Time;durP1;ratioP1;P1;durP2;ratioP2;P2;SDS_P1;SDS_P2;PMS_P1;PMS_P2;Temp;Humidity;BMP_temperature;BMP_pressure;BME280_temperature;BME280_humidity;BME280_pressure;Samples;Min_cycle;Max_cycle;Signal;HPM_P1;HPM_P2
2022/01/15 00:02:23;;;;;;;599.15;63.92;;;3.60;99.90;;;;;;4989312;28;20049;-80
2022/01/15 00:04:50;;;;;;;516.40;58.55;;;3.50;99.90;;;;;;4988243;28;20543;-80
2022/01/15 00:07:17;;;;;;;499.48;55.50;;;3.60;99.90;;;;;;4997961;28;20104;-80
2022/01/15 00:09:49;;;;;;;498.60;52.63;;;3.60;99.90;;;;;;4999104;28;20054;-79
2022/01/15 00:12:16;;;;;;;535.00;59.83;;;3.50;99.90;;;;;;4999912;28;20124;-79
2022/01/15 00:14:43;;;;;;;620.63;62.78;;;3.60;99.90;;;;;;5004753;28;20066;-80
2022/01/15 00:17:21;;;;;;;636.58;66.38;;;3.60;99.90;;;;;;5005426;28;20287;-79
2022/01/15 00:19:50;;;;;;;493.25;55.00;;;3.60;99.90;;;;;;4988876;28;20073;-79
2022/01/15 00:22:19;;;;;;;557.75;55.55;;;3.60;99.90;;;;;;4987587;28;20038;-79
2022/01/15 00:24:47;;;;;;;554.67;57.45;;;3.60;99.90;;;;;;4998969;28;20050;-79
2022/01/15 00:27:15;;;;;;;565.88;59.35;;;3.60;99.90;;;;;;4986054;28;20045;-79
2022/01/15 00:29:42;;;;;;;563.63;61.17;;;3.70;99.90;;;;;;5004235;28;20054;-79
2022/01/15 00:32:09;;;;;;;580.70;58.70;;;3.70;99.90;;;;;;5007579;28;20042;-79
2022/01/15 00:34:35;;;;;;;598.95;60.45;;;3.70;99.90;;;;;;5017055;28;20050;-79
2022/01/15 00:37:03;;;;;;;396.58;49.00;;;3.70;99.90;;;;;;4991899;28;20144;-80
2022/01/15 00:39:30;;;;;;;533.67;59.85;;;3.70;99.90;;;;;;5000410;28;20045;-80
2022/01/15 00:41:57;;;;;;;487.98;56.10;;;3.80;99.90;;;;;;5006807;28;20040;-80
2022/01/15 00:44:24;;;;;;;451.05;50.75;;;3.80;99.90;;;;;;4998191;28;20111;-80
2022/01/15 00:46:51;;;;;;;461.83;50.30;;;3.80;99.90;;;;;;4980166;28;20064;-80
2022/01/15 00:49:19;;;;;;;469.83;51.30;;;3.70;99.90;;;;;;4992868;28;20058;-79
2022/01/15 00:51:46;;;;;;;487.65;50.97;;;3.70;99.90;;;;;;4987349;28;20053;-79
2022/01/15 00:54:12;;;;;;;513.45;53.88;;;3.80;99.90;;;;;;4978575;28;20069;-80
2022/01/15 00:56:39;;;;;;;594.65;56.20;;;3.70;99.90;;;;;;4978305;28;20635;-79
2022/01/15 00:59:06;;;;;;;485.88;50.03;;;3.70;99.90;;;;;;4984779;28;20046;-79
2022/01/15 01:01:34;;;;;;;570.17;58.30;;;3.60;99.90;;;;;;4969112;28;20375;-79
2022/01/15 01:04:01;;;;;;;630.85;62.78;;;3.50;99.90;;;;;;4986684;28;20058;-79
2022/01/15 01:06:28;;;;;;;709.42;69.15;;;3.50;99.90;;;;;;4986399;28;20046;-79
2022/01/15 01:08:54;;;;;;;634.95;66.68;;;3.50;99.90;;;;;;4993950;28;20087;-80
2022/01/15 01:24:49;;;;;;;515.45;56.72;;;3.50;99.90;;;;;;4981991;28;20204;-79
2022/01/15 01:27:23;;;;;;;563.88;58.00;;;3.50;99.90;;;;;;4962991;28;20129;-80
2022/01/15 01:34:53;;;;;;;521.70;52.70;;;3.40;99.90;;;;;;5008771;28;20084;-79
2022/01/15 01:37:31;;;;;;;586.00;61.10;;;3.40;99.90;;;;;;4971017;28;20567;-80
2022/01/15 01:40:16;;;;;;;509.38;51.35;;;3.40;99.90;;;;;;5014383;28;20053;-79
2022/01/15 01:42:53;;;;;;;;;;;3.40;99.90;;;;;;5011274;28;20100;-79
2022/01/15 01:45:19;;;;;;;527.25;54.60;;;3.40;99.90;;;;;;4993840;28;19937;-79
2022/01/15 01:47:46;;;;;;;525.67;50.33;;;3.30;99.90;;;;;;4989757;28;20471;-80
2022/01/15 01:50:16;;;;;;;502.80;50.80;;;3.30;99.90;;;;;;4990417;28;20054;-79
2022/01/15 01:52:46;;;;;;;590.30;57.17;;;3.30;99.90;;;;;;4991398;28;20060;-79
2022/01/15 01:55:13;;;;;;;610.00;60.20;;;3.30;99.90;;;;;;4979313;28;20053;-80
2022/01/15 01:57:40;;;;;;;621.38;60.63;;;3.30;99.90;;;;;;4990579;28;20069;-80
2022/01/15 02:00:10;;;;;;;586.55;54.75;;;3.30;99.90;;;;;;5008066;28;20077;-80
2022/01/15 02:02:43;;;;;;;568.15;57.95;;;3.30;99.90;;;;;;4991017;28;20100;-80
2022/01/15 02:05:11;;;;;;;569.28;53.80;;;3.30;99.90;;;;;;5006746;28;20084;-80
2022/01/15 02:07:40;;;;;;;444.00;42.60;;;3.30;99.90;;;;;;5007782;28;20073;-80
2022/01/15 02:10:09;;;;;;;559.83;54.08;;;3.40;99.90;;;;;;5017076;28;20409;-79
2022/01/15 02:12:36;;;;;;;528.20;53.53;;;3.50;99.90;;;;;;4981161;28;20046;-79
2022/01/15 02:15:07;;;;;;;546.88;57.83;;;3.50;99.90;;;;;;5006402;28;20543;-79
2022/01/15 02:17:34;;;;;;;542.60;54.08;;;3.40;99.90;;;;;;4990020;28;20123;-79
2022/01/15 02:25:45;;;;;;;566.58;59.05;;;3.50;99.90;;;;;;4996198;28;20096;-79
2022/01/15 02:28:13;;;;;;;560.80;52.70;;;3.50;99.90;;;;;;4984652;28;20076;-79
2022/01/15 02:30:40;;;;;;;564.17;56.58;;;3.50;99.90;;;;;;4987881;28;20136;-79
2022/01/15 02:33:07;;;;;;;546.55;51.03;;;3.60;99.90;;;;;;4987765;28;20053;-79
2022/01/15 02:35:35;;;;;;;577.67;60.28;;;3.70;99.90;;;;;;4985129;28;20050;-79
2022/01/15 02:38:04;;;;;;;563.00;54.08;;;3.70;99.90;;;;;;4988500;28;20107;-79
2022/01/15 02:40:35;;;;;;;548.38;53.78;;;3.70;99.90;;;;;;5002544;28;20453;-79
2022/01/15 02:43:09;;;;;;;607.50;57.13;;;3.70;99.90;;;;;;5011148;28;20108;-80
2022/01/15 02:45:38;;;;;;;579.35;57.75;;;3.70;99.90;;;;;;4972021;28;20052;-79
2022/01/15 02:48:14;;;;;;;611.63;54.30;;;3.70;99.90;;;;;;5004023;28;20050;-79
2022/01/15 02:50:42;;;;;;;540.38;52.75;;;3.80;99.90;;;;;;5004326;28;20062;-80
2022/01/15 02:53:10;;;;;;;511.33;51.33;;;3.70;99.90;;;;;;4982277;28;20799;-79
2022/01/15 02:55:44;;;;;;;524.60;54.33;;;3.70;99.90;;;;;;5000826;28;20297;-79
2022/01/15 02:58:11;;;;;;;482.83;51.70;;;3.70;99.90;;;;;;4987162;28;20115;-79
2022/01/15 03:00:39;;;;;;;543.67;56.55;;;3.70;99.90;;;;;;4986759;28;20042;-79
2022/01/15 03:03:06;;;;;;;600.63;54.60;;;3.70;99.90;;;;;;4987981;28;20065;-79
2022/01/15 03:05:33;;;;;;;527.13;51.15;;;3.70;99.90;;;;;;5004269;28;20672;-80
2022/01/15 03:08:00;;;;;;;585.65;53.38;;;3.70;99.90;;;;;;4988263;28;20564;-80
2022/01/15 03:10:27;;;;;;;415.15;44.30;;;3.70;99.90;;;;;;4999791;28;20037;-79
2022/01/15 03:12:55;;;;;;;536.08;52.75;;;3.70;99.90;;;;;;5012928;28;20050;-79
2022/01/15 03:15:22;;;;;;;477.65;53.00;;;3.70;99.90;;;;;;5003818;28;20076;-79
2022/01/15 03:17:50;;;;;;;380.05;41.13;;;3.80;99.90;;;;;;5007497;28;20042;-79
2022/01/15 03:20:19;;;;;;;472.20;50.10;;;3.80;99.90;;;;;;4971666;28;20049;-79
2022/01/15 03:22:47;;;;;;;505.02;50.63;;;3.60;99.90;;;;;;5006261;28;20049;-79
2022/01/15 03:25:14;;;;;;;497.08;53.35;;;3.60;99.90;;;;;;4985464;28;20031;-79
2022/01/15 03:27:41;;;;;;;489.48;46.08;;;3.60;99.90;;;;;;4986550;28;20092;-80
2022/01/15 03:30:09;;;;;;;436.15;45.83;;;3.60;99.90;;;;;;4983382;28;20132;-79
2022/01/15 03:32:42;;;;;;;456.92;48.08;;;3.60;99.90;;;;;;4983197;28;20105;-79
2022/01/15 03:35:12;;;;;;;476.42;51.60;;;3.60;99.90;;;;;;4976043;28;20046;-79
2022/01/15 03:37:39;;;;;;;420.60;44.42;;;3.50;99.90;;;;;;5002066;28;20058;-79
2022/01/15 03:40:08;;;;;;;422.08;46.63;;;3.60;99.90;;;;;;5012649;28;20057;-79
2022/01/15 03:42:35;;;;;;;443.23;44.47;;;3.70;99.90;;;;;;5036210;28;20041;-80
2022/01/15 03:45:04;;;;;;;439.83;45.60;;;3.70;99.90;;;;;;4995414;28;20412;-80
2022/01/15 03:47:31;;;;;;;446.33;48.63;;;3.70;99.90;;;;;;4986092;28;20800;-80
2022/01/15 03:49:58;;;;;;;471.25;45.78;;;3.70;99.90;;;;;;4976751;28;20046;-80
2022/01/15 03:52:24;;;;;;;408.75;45.55;;;3.80;99.90;;;;;;4968074;28;20088;-80
2022/01/15 03:54:51;;;;;;;434.52;45.35;;;3.80;99.90;;;;;;4995271;28;20273;-80
2022/01/15 03:57:18;;;;;;;453.92;46.50;;;3.80;99.90;;;;;;4993306;28;20041;-80
2022/01/15 03:59:45;;;;;;;340.13;40.05;;;3.70;99.90;;;;;;4995149;28;20078;-80
2022/01/15 04:02:11;;;;;;;426.98;45.20;;;3.80;99.90;;;;;;4970911;28;20599;-80
2022/01/15 04:04:38;;;;;;;463.90;47.80;;;3.80;99.90;;;;;;5004104;28;20048;-80
2022/01/15 04:07:06;;;;;;;553.92;52.58;;;3.90;99.90;;;;;;5002520;28;20050;-80
2022/01/15 04:09:33;;;;;;;575.28;55.15;;;3.90;99.90;;;;;;4999081;28;20103;-80
2022/01/15 04:11:59;;;;;;;561.30;57.30;;;3.90;99.90;;;;;;5002638;28;20051;-80
2022/01/15 04:14:26;;;;;;;566.00;51.53;;;3.90;99.90;;;;;;4992893;28;20352;-80
2022/01/15 04:16:53;;;;;;;522.50;48.80;;;3.80;99.90;;;;;;4982489;28;20058;-79
2022/01/15 04:19:20;;;;;;;483.48;44.72;;;3.90;99.90;;;;;;4972709;28;20041;-79
2022/01/15 04:21:47;;;;;;;481.10;49.03;;;3.90;99.90;;;;;;5001936;28;20069;-80
2022/01/15 04:24:14;;;;;;;461.48;53.90;;;3.80;99.90;;;;;;4991235;28;20321;-79
2022/01/15 04:26:41;;;;;;;433.02;40.13;;;3.80;99.90;;;;;;4983455;28;20437;-80
2022/01/15 04:29:08;;;;;;;433.38;44.33;;;3.70;99.90;;;;;;5003095;28;20081;-79
2022/01/15 04:31:46;;;;;;;418.35;45.33;;;3.70;99.90;;;;;;4981712;28;20081;-79
2022/01/15 04:34:19;;;;;;;391.77;40.92;;;3.80;99.90;;;;;;4981834;28;20174;-79
2022/01/15 04:36:47;;;;;;;350.73;40.97;;;3.70;99.90;;;;;;4972213;28;20109;-79
2022/01/15 04:39:14;;;;;;;393.02;42.90;;;3.60;99.90;;;;;;4991906;28;20103;-80
2022/01/15 04:41:41;;;;;;;356.52;40.65;;;3.50;99.90;;;;;;5020536;28;20088;-79
2022/01/15 04:44:08;;;;;;;422.33;45.25;;;3.60;99.90;;;;;;5000393;28;20069;-79
2022/01/15 04:46:36;;;;;;;422.33;47.83;;;3.70;99.90;;;;;;4983669;28;20162;-80
2022/01/15 04:49:04;;;;;;;534.90;52.40;;;3.80;99.90;;;;;;5001193;28;20049;-80
2022/01/15 04:51:32;;;;;;;523.75;50.03;;;3.80;99.90;;;;;;4984031;28;20081;-79
2022/01/15 04:53:58;;;;;;;510.35;48.10;;;3.80;99.90;;;;;;4983275;28;20500;-79
2022/01/15 04:56:26;;;;;;;393.92;43.80;;;3.90;99.90;;;;;;4984627;28;20117;-80
2022/01/15 04:58:53;;;;;;;428.30;47.53;;;3.90;99.90;;;;;;4983514;28;20082;-79
2022/01/15 05:01:20;;;;;;;389.08;44.45;;;3.80;99.90;;;;;;5005952;28;20098;-80
2022/01/15 05:03:47;;;;;;;403.67;43.20;;;3.90;99.90;;;;;;5007284;28;20515;-79
2022/01/15 05:06:14;;;;;;;323.08;36.13;;;3.70;99.90;;;;;;4988711;28;20116;-80
2022/01/15 05:08:44;;;;;;;242.63;31.70;;;3.60;99.90;;;;;;4983519;28;20049;-80
2022/01/15 05:11:26;;;;;;;371.80;40.45;;;3.60;99.90;;;;;;5001005;28;20050;-80
2022/01/15 05:13:52;;;;;;;248.13;30.35;;;3.70;99.90;;;;;;4987874;28;20516;-80
2022/01/15 05:16:19;;;;;;;236.90;31.42;;;3.70;99.90;;;;;;5004855;28;20129;-80
2022/01/15 05:18:46;;;;;;;323.02;38.05;;;3.70;99.90;;;;;;5005925;28;20042;-79
2022/01/15 05:21:13;;;;;;;187.52;27.75;;;3.80;99.90;;;;;;4971789;28;20133;-79
2022/01/15 05:23:40;;;;;;;155.95;25.63;;;3.70;99.90;;;;;;4983355;28;20622;-79
2022/01/15 05:26:07;;;;;;;193.02;29.90;;;3.60;99.90;;;;;;4986768;28;20118;-79
2022/01/15 05:28:33;;;;;;;204.70;29.45;;;3.60;99.90;;;;;;4987696;28;20057;-79
2022/01/15 05:31:00;;;;;;;185.40;27.05;;;3.60;99.90;;;;;;4969119;28;20042;-79
2022/01/15 05:33:27;;;;;;;198.30;27.00;;;3.70;99.90;;;;;;4981878;28;20481;-79
2022/01/15 05:35:53;;;;;;;142.38;25.63;;;3.70;99.90;;;;;;4988036;28;20065;-80
2022/01/15 05:38:21;;;;;;;227.88;30.63;;;3.70;99.90;;;;;;4989341;28;20728;-80
2022/01/15 05:40:49;;;;;;;180.52;28.42;;;3.70;99.90;;;;;;5005326;28;20045;-80
2022/01/15 05:43:16;;;;;;;211.77;29.00;;;3.80;99.90;;;;;;4998053;28;20108;-79
2022/01/15 05:45:43;;;;;;;194.18;27.98;;;3.90;99.90;;;;;;5004400;28;20080;-79
2022/01/15 05:48:09;;;;;;;177.80;28.33;;;3.80;99.90;;;;;;4988044;28;20076;-79
2022/01/15 05:50:36;;;;;;;182.90;31.15;;;3.70;99.90;;;;;;5002825;28;20349;-80
2022/01/15 05:53:03;;;;;;;248.45;32.47;;;3.70;99.90;;;;;;4983650;28;20720;-79
2022/01/15 05:55:30;;;;;;;314.65;39.33;;;3.70;99.90;;;;;;4970758;28;21264;-79
2022/01/15 05:57:58;;;;;;;272.52;34.05;;;3.80;99.90;;;;;;4988108;28;20045;-79
2022/01/15 06:00:25;;;;;;;245.10;33.92;;;3.80;99.90;;;;;;5004778;28;20104;-79
2022/01/15 06:02:51;;;;;;;264.45;35.33;;;3.70;99.90;;;;;;4970867;28;20319;-80
2022/01/15 06:05:18;;;;;;;213.30;32.38;;;3.70;99.90;;;;;;5005688;28;20534;-80
2022/01/15 06:07:45;;;;;;;245.63;34.28;;;3.80;99.90;;;;;;4988201;28;20308;-79
2022/01/15 06:10:12;;;;;;;175.98;28.83;;;3.80;99.90;;;;;;5018763;28;20292;-79
2022/01/15 06:12:43;;;;;;;159.80;26.15;;;3.70;99.90;;;;;;4990391;28;20054;-80
2022/01/15 06:15:11;;;;;;;140.30;26.13;;;3.70;99.90;;;;;;4983259;28;20405;-79
2022/01/15 06:17:38;;;;;;;175.93;31.30;;;3.80;99.90;;;;;;5001829;28;20045;-79
2022/01/15 06:20:06;;;;;;;172.38;29.88;;;3.80;99.90;;;;;;4984791;28;20207;-79
2022/01/15 06:22:33;;;;;;;168.38;29.55;;;3.80;99.90;;;;;;4987322;28;20496;-79
2022/01/15 06:25:02;;;;;;;166.75;28.13;;;3.80;99.90;;;;;;4984996;28;20278;-79
2022/01/15 06:27:33;;;;;;;163.73;27.35;;;3.70;99.90;;;;;;4986407;28;20041;-79
2022/01/15 06:30:00;;;;;;;139.23;23.55;;;3.80;99.90;;;;;;4987068;28;20092;-79
2022/01/15 06:32:28;;;;;;;137.15;26.00;;;3.90;99.90;;;;;;4986677;28;20138;-79
2022/01/15 06:34:54;;;;;;;142.40;23.90;;;3.80;99.90;;;;;;4977743;23;20107;-72
2022/01/15 06:37:21;;;;;;;136.45;23.77;;;3.70;99.90;;;;;;5038110;28;20033;-71
2022/01/15 06:39:48;;;;;;;152.40;25.35;;;3.60;99.90;;;;;;5041436;28;20041;-72
2022/01/15 06:42:15;;;;;;;161.43;26.58;;;3.70;99.90;;;;;;5025031;28;20091;-72
2022/01/15 06:44:42;;;;;;;148.65;25.05;;;3.60;99.90;;;;;;5042360;28;20725;-72
2022/01/15 06:47:09;;;;;;;137.43;23.70;;;3.80;99.90;;;;;;5041991;28;20550;-73
2022/01/15 06:49:38;;;;;;;122.15;22.30;;;3.70;99.90;;;;;;5041197;28;20310;-72
2022/01/15 06:52:05;;;;;;;124.75;22.45;;;3.80;99.90;;;;;;5041056;28;20056;-72
2022/01/15 06:54:32;;;;;;;126.78;23.58;;;3.80;99.90;;;;;;5031092;28;20573;-73
2022/01/15 06:56:59;;;;;;;124.70;24.25;;;3.80;99.90;;;;;;5007637;28;20077;-72
2022/01/15 06:59:25;;;;;;;110.82;21.55;;;3.80;99.90;;;;;;5023985;28;20111;-72
2022/01/15 07:01:52;;;;;;;129.00;24.38;;;3.80;99.90;;;;;;5041387;28;20305;-71
2022/01/15 07:04:19;;;;;;;97.30;20.17;;;3.80;99.90;;;;;;5042232;28;20040;-71
2022/01/15 07:06:46;;;;;;;113.13;22.30;;;3.90;99.90;;;;;;5038305;28;20140;-72
2022/01/15 07:09:14;;;;;;;161.90;25.65;;;3.90;99.90;;;;;;5022133;28;20081;-73
2022/01/15 07:11:40;;;;;;;128.00;22.58;;;3.70;99.90;;;;;;5026344;28;20171;-72
2022/01/15 07:14:07;;;;;;;138.70;25.15;;;3.70;99.90;;;;;;5026877;28;20041;-72
2022/01/15 07:16:34;;;;;;;153.93;26.98;;;3.80;99.90;;;;;;5040392;28;20045;-72
2022/01/15 07:19:02;;;;;;;166.75;27.77;;;3.90;99.90;;;;;;5021734;28;20152;-73
2022/01/15 07:21:29;;;;;;;162.32;31.63;;;3.80;99.90;;;;;;5039745;28;20048;-74
2022/01/15 07:23:55;;;;;;;168.75;27.90;;;3.80;99.90;;;;;;5028411;28;20064;-73
2022/01/15 07:26:22;;;;;;;131.50;24.83;;;3.90;99.90;;;;;;5027141;28;20661;-73
2022/01/15 07:28:49;;;;;;;136.95;26.17;;;3.90;99.90;;;;;;5006365;28;20084;-73
2022/01/15 07:31:16;;;;;;;127.88;24.63;;;3.90;99.90;;;;;;5023733;28;20068;-73
2022/01/15 07:33:42;;;;;;;138.52;26.83;;;3.90;99.90;;;;;;5049275;28;20049;-73
2022/01/15 07:36:09;;;;;;;114.97;24.70;;;3.90;99.90;;;;;;5043180;28;20037;-73
2022/01/15 07:38:36;;;;;;;98.18;22.83;;;4.00;99.90;;;;;;5052174;28;20072;-73
2022/01/15 07:41:05;;;;;;;66.78;18.60;;;3.90;99.90;;;;;;5023098;28;20130;-73
2022/01/15 07:43:32;;;;;;;50.03;14.73;;;3.90;99.90;;;;;;5023694;28;20048;-73
2022/01/15 07:45:59;;;;;;;50.17;14.35;;;3.80;99.90;;;;;;5041641;28;20033;-72
2022/01/15 07:48:26;;;;;;;47.50;14.13;;;3.80;99.90;;;;;;5041290;28;20053;-74
2022/01/15 07:50:53;;;;;;;43.72;13.75;;;3.80;99.90;;;;;;5022235;28;20076;-70
2022/01/15 07:53:20;;;;;;;47.85;14.50;;;3.80;99.90;;;;;;5023316;28;20076;-74
2022/01/15 07:55:47;;;;;;;67.70;16.50;;;3.80;99.90;;;;;;5030863;28;20090;-74
2022/01/15 07:58:14;;;;;;;65.10;18.08;;;3.90;99.90;;;;;;5022695;28;20521;-71
2022/01/15 08:00:41;;;;;;;66.72;19.08;;;3.90;99.90;;;;;;5041518;28;20076;-74
2022/01/15 08:03:08;;;;;;;66.47;20.80;;;3.90;99.90;;;;;;5041937;28;20044;-73
2022/01/15 08:05:36;;;;;;;56.65;19.05;;;3.90;99.90;;;;;;5005475;28;20480;-71
2022/01/15 08:08:02;;;;;;;63.55;21.13;;;3.90;99.90;;;;;;5041058;28;20059;-71
2022/01/15 08:10:29;;;;;;;63.83;21.15;;;3.90;99.90;;;;;;5040381;28;20396;-72
2022/01/15 08:12:56;;;;;;;71.75;21.10;;;3.90;99.90;;;;;;5024888;28;20120;-73
2022/01/15 08:15:25;;;;;;;72.70;21.33;;;3.90;99.90;;;;;;5034401;28;20057;-72
2022/01/15 08:17:52;;;;;;;71.13;21.98;;;3.90;99.90;;;;;;5040977;28;20037;-71
2022/01/15 08:20:19;;;;;;;121.43;43.25;;;4.00;99.90;;;;;;5043128;28;20296;-72
2022/01/15 08:22:46;;;;;;;77.55;25.23;;;4.00;99.90;;;;;;5047304;28;20356;-71
2022/01/15 08:25:16;;;;;;;78.95;24.45;;;4.10;99.90;;;;;;5045813;28;20045;-72
2022/01/15 08:27:44;;;;;;;65.70;21.08;;;4.10;99.90;;;;;;5064412;28;20416;-72
2022/01/15 08:30:12;;;;;;;59.25;20.25;;;4.20;99.90;;;;;;5025608;28;20052;-72
2022/01/15 08:32:40;;;;;;;78.20;25.85;;;4.10;99.90;;;;;;5023753;28;20550;-72
2022/01/15 08:35:08;;;;;;;67.32;25.85;;;4.10;99.90;;;;;;5040881;28;20115;-72
2022/01/15 08:37:37;;;;;;;61.20;25.75;;;4.10;99.90;;;;;;5041833;28;20068;-71
2022/01/15 08:40:06;;;;;;;54.30;21.90;;;4.10;99.90;;;;;;5039115;28;20048;-72
2022/01/15 08:42:33;;;;;;;55.90;22.02;;;4.00;99.90;;;;;;5024002;28;20053;-70
2022/01/15 08:45:00;;;;;;;59.90;21.42;;;4.00;99.90;;;;;;5041177;28;20064;-72
2022/01/15 08:47:27;;;;;;;42.17;17.38;;;3.90;99.90;;;;;;5022936;28;20533;-72
2022/01/15 08:49:55;;;;;;;44.72;18.90;;;3.80;99.90;;;;;;5023153;28;20073;-72
2022/01/15 08:52:23;;;;;;;40.15;18.75;;;3.70;99.90;;;;;;5023455;28;20525;-72
2022/01/15 08:54:49;;;;;;;46.35;19.05;;;3.70;99.90;;;;;;5041394;28;20080;-72
2022/01/15 08:57:16;;;;;;;38.38;16.67;;;3.70;99.90;;;;;;5021951;28;20083;-72
2022/01/15 08:59:43;;;;;;;40.75;17.67;;;3.60;99.90;;;;;;5040562;28;20127;-71
2022/01/15 09:02:10;;;;;;;33.97;16.20;;;3.60;99.90;;;;;;5040271;28;20033;-72
2022/01/15 09:04:38;;;;;;;35.80;15.82;;;3.60;99.90;;;;;;5040372;28;20103;-72
2022/01/15 09:07:05;;;;;;;39.22;16.67;;;3.60;99.90;;;;;;5040632;28;20198;-72
2022/01/15 09:09:32;;;;;;;36.78;17.17;;;3.60;99.90;;;;;;5026695;28;20521;-72
2022/01/15 09:11:58;;;;;;;27.92;13.75;;;3.60;99.90;;;;;;5041076;28;20080;-73
2022/01/15 09:14:25;;;;;;;32.25;15.55;;;3.60;99.90;;;;;;5040609;28;20137;-71
2022/01/15 09:16:52;;;;;;;33.72;14.55;;;3.60;99.90;;;;;;5038182;28;20549;-71
2022/01/15 09:19:18;;;;;;;35.40;16.60;;;3.50;99.90;;;;;;5006275;28;20144;-72
2022/01/15 09:21:46;;;;;;;39.33;18.67;;;3.60;99.90;;;;;;5022947;28;20052;-72
2022/01/15 09:24:13;;;;;;;32.75;16.38;;;3.50;99.90;;;;;;5039537;28;20107;-71
2022/01/15 09:32:07;;;;;;;31.55;14.63;;;3.50;99.90;;;;;;5041098;28;20045;-71
2022/01/15 09:34:35;;;;;;;31.80;15.75;;;3.40;99.90;;;;;;5040993;28;20053;-70
2022/01/15 09:37:05;;;;;;;23.17;12.38;;;3.40;99.90;;;;;;5022567;28;20053;-71
2022/01/15 09:39:33;;;;;;;30.08;15.77;;;3.30;99.90;;;;;;5040498;28;20052;-71
2022/01/15 09:42:00;;;;;;;22.10;9.77;;;3.30;99.90;;;;;;5022496;28;20079;-71
2022/01/15 09:44:26;;;;;;;27.92;13.82;;;3.30;99.90;;;;;;5023336;28;20140;-70
2022/01/15 09:46:54;;;;;;;26.83;14.32;;;3.30;99.90;;;;;;5041445;28;20071;-70
2022/01/15 09:49:23;;;;;;;25.77;13.38;;;3.40;99.90;;;;;;5043185;28;20076;-71
2022/01/15 09:51:51;;;;;;;24.40;12.07;;;3.40;99.90;;;;;;5042537;28;20048;-71
2022/01/15 09:54:18;;;;;;;30.08;14.93;;;3.40;99.90;;;;;;5044197;28;20045;-72
2022/01/15 09:56:46;;;;;;;24.88;12.45;;;3.50;99.90;;;;;;5031410;28;20132;-73
2022/01/15 09:59:14;;;;;;;24.27;11.82;;;3.40;99.90;;;;;;5024181;28;20060;-71
2022/01/15 10:01:42;;;;;;;19.63;8.65;;;3.30;99.90;;;;;;5041143;28;20052;-71
2022/01/15 10:04:09;;;;;;;27.15;12.38;;;3.30;99.90;;;;;;5042268;28;20274;-70
2022/01/15 10:06:36;;;;;;;23.42;11.75;;;3.30;99.90;;;;;;5044293;28;20049;-73
2022/01/15 10:09:05;;;;;;;32.55;14.88;;;3.30;99.90;;;;;;5043393;28;20049;-72
2022/01/15 10:11:43;;;;;;;27.58;12.15;;;3.30;99.90;;;;;;5025080;28;20580;-71
2022/01/15 10:14:26;;;;;;;28.33;13.70;;;3.30;99.90;;;;;;5042423;28;20053;-72
2022/01/15 10:16:55;;;;;;;29.02;11.65;;;3.30;99.90;;;;;;5024292;28;20076;-71
2022/01/15 10:19:30;;;;;;;35.28;13.63;;;3.20;99.90;;;;;;5042956;28;20133;-73
2022/01/15 10:22:10;;;;;;;34.10;13.25;;;3.20;99.90;;;;;;5026576;28;20045;-71
2022/01/15 10:24:40;;;;;;;31.90;13.88;;;3.10;99.90;;;;;;5043140;28;20145;-72
2022/01/15 10:27:29;;;;;;;46.70;19.55;;;3.00;99.90;;;;;;5039141;28;20060;-72
2022/01/15 10:29:58;;;;;;;54.92;18.92;;;3.10;99.90;;;;;;5040702;28;20056;-71
2022/01/15 10:32:26;;;;;;;43.53;16.42;;;3.00;99.90;;;;;;5023099;28;20143;-72
2022/01/15 10:34:53;;;;;;;70.25;28.20;;;3.00;99.90;;;;;;5024490;28;20361;-72
2022/01/15 10:37:26;;;;;;;45.42;17.30;;;3.00;99.90;;;;;;5042422;28;20076;-72
2022/01/15 10:40:13;;;;;;;86.78;33.55;;;3.10;99.90;;;;;;5043078;28;20054;-70
2022/01/15 10:42:40;;;;;;;80.13;31.67;;;3.20;99.90;;;;;;5042197;28;20056;-72
2022/01/15 10:45:08;;;;;;;52.90;18.63;;;3.20;99.90;;;;;;5007844;28;20159;-71
2022/01/15 10:47:40;;;;;;;56.83;19.15;;;3.20;99.90;;;;;;5023774;28;20053;-71
2022/01/15 10:50:09;;;;;;;34.97;13.02;;;3.10;99.90;;;;;;5042201;28;20061;-70
2022/01/15 10:52:36;;;;;;;48.85;17.13;;;3.00;99.90;;;;;;5040328;28;20069;-72
2022/01/15 10:55:13;;;;;;;47.03;19.70;;;2.90;99.90;;;;;;5023666;28;20072;-71
2022/01/15 10:57:42;;;;;;;60.05;27.88;;;2.90;99.90;;;;;;5023074;28;20052;-72
2022/01/15 11:00:15;;;;;;;41.67;17.92;;;3.00;99.90;;;;;;5041925;28;20139;-71
2022/01/15 11:02:45;;;;;;;49.42;22.00;;;3.10;99.90;;;;;;5040152;28;20510;-72
2022/01/15 11:05:21;;;;;;;46.20;19.95;;;3.10;99.90;;;;;;5040177;28;20462;-71
2022/01/15 11:07:48;;;;;;;35.45;12.63;;;3.10;99.90;;;;;;5024090;28;20049;-71
2022/01/15 11:10:15;;;;;;;32.90;12.90;;;2.90;99.90;;;;;;5022966;28;20565;-71
2022/01/15 11:12:42;;;;;;;28.67;11.68;;;2.90;99.90;;;;;;5040308;28;20080;-71
2022/01/15 11:15:09;;;;;;;39.45;14.82;;;2.80;99.90;;;;;;5040886;28;20037;-71
2022/01/15 11:17:37;;;;;;;27.52;10.88;;;2.90;99.90;;;;;;5041789;28;20152;-71
2022/01/15 11:20:05;;;;;;;24.48;10.85;;;2.80;99.90;;;;;;5042189;28;20581;-71
2022/01/15 11:22:33;;;;;;;33.00;13.15;;;2.80;99.90;;;;;;5041918;28;20513;-71
2022/01/15 11:25:00;;;;;;;27.80;11.93;;;2.80;99.90;;;;;;5013555;28;20080;-71
2022/01/15 11:27:29;;;;;;;30.80;12.52;;;2.80;99.90;;;;;;5041864;28;20136;-71
2022/01/15 11:29:58;;;;;;;26.10;12.55;;;2.90;99.90;;;;;;5035186;28;20477;-71
2022/01/15 11:32:28;;;;;;;25.15;11.90;;;2.90;99.90;;;;;;5038517;28;20072;-72
2022/01/15 11:35:03;;;;;;;22.63;10.77;;;3.00;99.90;;;;;;5035426;28;20067;-72
2022/01/15 11:37:52;;;;;;;21.35;11.07;;;3.10;99.90;;;;;;5028888;28;20147;-71
2022/01/15 11:40:45;;;;;;;24.25;12.30;;;3.00;99.90;;;;;;5047444;28;20071;-71
2022/01/15 11:43:24;;;;;;;19.65;10.55;;;3.10;99.90;;;;;;5016308;28;20072;-72
2022/01/15 11:45:53;;;;;;;22.08;11.15;;;3.20;99.90;;;;;;5018623;28;20255;-71
2022/01/15 11:48:27;;;;;;;22.08;10.70;;;3.30;99.90;;;;;;5039989;28;20086;-70
2022/01/15 11:51:29;;;;;;;29.90;14.00;;;3.20;99.90;;;;;;5038724;28;20049;-73
2022/01/15 11:54:00;;;;;;;21.15;10.75;;;3.10;99.90;;;;;;4993136;28;20423;-71
2022/01/15 11:56:36;;;;;;;13.63;7.20;;;3.00;99.90;;;;;;5027873;28;20624;-72
2022/01/15 11:59:24;;;;;;;22.92;9.50;;;2.80;99.90;;;;;;5041423;28;20052;-71
2022/01/15 12:02:02;;;;;;;24.58;11.73;;;2.60;99.90;;;;;;5045462;28;20131;-73
2022/01/15 12:04:33;;;;;;;26.25;10.43;;;2.70;99.90;;;;;;5044503;28;20080;-73
2022/01/15 12:07:03;;;;;;;25.23;11.32;;;2.70;99.90;;;;;;5038152;28;20045;-72
2022/01/15 12:09:44;;;;;;;26.33;12.30;;;2.90;99.90;;;;;;5038723;28;20048;-72
2022/01/15 12:12:20;;;;;;;25.15;12.57;;;2.90;99.90;;;;;;5021791;28;20045;-72
2022/01/15 12:14:48;;;;;;;25.40;12.95;;;3.00;99.90;;;;;;5040329;28;20095;-72
2022/01/15 12:17:29;;;;;;;29.85;12.00;;;3.10;99.90;;;;;;5038423;28;20570;-72
2022/01/15 12:19:58;;;;;;;29.40;12.68;;;3.00;99.90;;;;;;5039927;28;20166;-72
2022/01/15 12:22:34;;;;;;;28.92;11.60;;;3.00;99.90;;;;;;5020213;28;20427;-72
2022/01/15 12:25:05;;;;;;;29.48;13.40;;;2.90;99.90;;;;;;5027982;28;20044;-72
2022/01/15 12:27:33;;;;;;;26.10;10.93;;;2.80;99.90;;;;;;5039490;28;20506;-72
2022/01/15 12:30:10;;;;;;;43.00;12.77;;;2.70;99.90;;;;;;5021544;28;20051;-71
2022/01/15 12:32:42;;;;;;;27.02;11.98;;;2.60;99.90;;;;;;5039030;28;20410;-72
2022/01/15 12:35:18;;;;;;;30.45;13.20;;;2.70;99.90;;;;;;5066979;22;20037;-79
2022/01/15 12:38:05;;;;;;;22.92;11.43;;;2.70;99.90;;;;;;5058220;28;20449;-79
2022/01/15 12:40:41;;;;;;;32.13;14.77;;;2.70;99.90;;;;;;5071050;28;20128;-79
2022/01/15 12:43:23;;;;;;;25.25;12.50;;;2.60;99.90;;;;;;5054109;28;20076;-79
2022/01/15 12:45:53;;;;;;;25.73;11.57;;;2.50;99.90;;;;;;5061377;28;20388;-79
2022/01/15 12:48:23;;;;;;;26.85;12.90;;;2.60;99.90;;;;;;5011004;28;20105;-79
2022/01/15 12:50:53;;;;;;;26.45;12.50;;;2.70;99.90;;;;;;5027874;28;20075;-79
2022/01/15 12:53:22;;;;;;;28.77;12.70;;;2.70;99.90;;;;;;5061170;28;20041;-79
2022/01/15 12:55:50;;;;;;;28.15;14.07;;;2.60;99.90;;;;;;5064627;28;20275;-79
2022/01/15 12:58:20;;;;;;;29.58;12.38;;;2.80;99.90;;;;;;5044108;28;20098;-79
2022/01/15 13:00:49;;;;;;;35.75;17.00;;;2.80;99.90;;;;;;5057665;28;20098;-78
2022/01/15 13:03:19;;;;;;;27.92;13.05;;;2.80;99.90;;;;;;5082855;28;20171;-80
2022/01/15 13:06:06;;;;;;;16.15;8.38;;;2.80;99.90;;;;;;5060652;28;20105;-78
2022/01/15 13:08:39;;;;;;;15.43;8.20;;;2.60;99.90;;;;;;5054617;28;20044;-78
2022/01/15 13:13:43;;;;;;;20.42;9.90;;;2.50;99.90;;;;;;5043784;28;20269;-79